sensor_id;sensor_type;location;lat;lon;timestamp;pressure;altitude;pressure_sealevel;temperature;humidity
68807;BME280;55800;54.272;18.558;2022-12-18T00:02:15;102399.97;;;-4.51;71.89
68807;BME280;55800;54.272;18.558;2022-12-18T00:04:45;102404.97;;;-4.55;71.34
68807;BME280;55800;54.272;18.558;2022-12-18T00:07:14;102403.19;;;-4.56;71.75
68807;BME280;55800;54.272;18.558;2022-12-18T00:09:44;102404.53;;;-4.64;71.88
68807;BME280;55800;54.272;18.558;2022-12-18T00:12:15;102415.13;;;-4.61;71.97
68807;BME280;55800;54.272;18.558;2022-12-18T00:14:50;102420.03;;;-4.67;71.75
68807;BME280;55800;54.272;18.558;2022-12-18T00:17:19;102430.31;;;-4.70;71.95
68807;BME280;55800;54.272;18.558;2022-12-18T00:19:49;102421.41;;;-4.76;71.79
68807;BME280;55800;54.272;18.558;2022-12-18T00:22:18;102421.69;;;-4.69;71.50
68807;BME280;55800;54.272;18.558;2022-12-18T00:24:48;102419.75;;;-4.73;71.91
68807;BME280;55800;54.272;18.558;2022-12-18T00:27:18;102416.75;;;-4.81;72.13
68807;BME280;55800;54.272;18.558;2022-12-18T00:29:48;102423.84;;;-4.79;72.28
68807;BME280;55800;54.272;18.558;2022-12-18T00:32:18;102423.78;;;-4.80;72.42
68807;BME280;55800;54.272;18.558;2022-12-18T00:34:47;102431.31;;;-4.86;72.83
68807;BME280;55800;54.272;18.558;2022-12-18T00:37:16;102428.53;;;-4.89;73.17
68807;BME280;55800;54.272;18.558;2022-12-18T00:39:51;102427.63;;;-4.90;73.18
68807;BME280;55800;54.272;18.558;2022-12-18T00:42:22;102428.25;;;-4.95;73.41
68807;BME280;55800;54.272;18.558;2022-12-18T00:45:09;102437.50;;;-4.84;72.68
68807;BME280;55800;54.272;18.558;2022-12-18T00:47:40;102434.94;;;-4.83;72.28
68807;BME280;55800;54.272;18.558;2022-12-18T00:50:10;102433.00;;;-4.87;72.52
68807;BME280;55800;54.272;18.558;2022-12-18T00:52:39;102437.50;;;-4.84;72.58
68807;BME280;55800;54.272;18.558;2022-12-18T00:55:09;102434.94;;;-4.83;72.57
68807;BME280;55800;54.272;18.558;2022-12-18T00:57:40;102448.50;;;-4.90;72.67
68807;BME280;55800;54.272;18.558;2022-12-18T01:00:13;102446.88;;;-4.88;72.32
68807;BME280;55800;54.272;18.558;2022-12-18T01:02:42;102448.59;;;-4.88;72.96
68807;BME280;55800;54.272;18.558;2022-12-18T01:05:13;102444.34;;;-4.86;72.45
68807;BME280;55800;54.272;18.558;2022-12-18T01:07:43;102441.81;;;-4.85;72.75
68807;BME280;55800;54.272;18.558;2022-12-18T01:10:13;102434.38;;;-4.95;73.11
68807;BME280;55800;54.272;18.558;2022-12-18T01:12:44;102450.25;;;-4.90;73.29
68807;BME280;55800;54.272;18.558;2022-12-18T01:15:14;102453.16;;;-4.84;72.84
68807;BME280;55800;54.272;18.558;2022-12-18T01:17:44;102454.78;;;-4.86;72.96
68807;BME280;55800;54.272;18.558;2022-12-18T01:20:13;102454.78;;;-4.86;73.04
68807;BME280;55800;54.272;18.558;2022-12-18T01:22:43;102466.25;;;-4.83;72.60
68807;BME280;55800;54.272;18.558;2022-12-18T01:25:12;102461.78;;;-4.85;72.89
68807;BME280;55800;54.272;18.558;2022-12-18T01:27:44;102466.94;;;-4.87;73.23
68807;BME280;55800;54.272;18.558;2022-12-18T01:30:14;102459.16;;;-4.85;73.13
68807;BME280;55800;54.272;18.558;2022-12-18T01:32:44;102459.09;;;-4.87;73.08
68807;BME280;55800;54.272;18.558;2022-12-18T01:35:13;102462.69;;;-4.85;73.15
68807;BME280;55800;54.272;18.558;2022-12-18T01:37:42;102463.59;;;-4.84;72.70
68807;BME280;55800;54.272;18.558;2022-12-18T01:40:12;102472.81;;;-4.91;73.02
68807;BME280;55800;54.272;18.558;2022-12-18T01:42:41;102469.53;;;-4.87;72.87
68807;BME280;55800;54.272;18.558;2022-12-18T01:45:27;102464.31;;;-4.87;72.39
68807;BME280;55800;54.272;18.558;2022-12-18T01:47:59;102462.50;;;-4.88;72.24
68807;BME280;55800;54.272;18.558;2022-12-18T01:50:32;102474.44;;;-4.93;72.28
68807;BME280;55800;54.272;18.558;2022-12-18T01:53:05;102466.69;;;-4.91;72.14
68807;BME280;55800;54.272;18.558;2022-12-18T01:55:39;102459.09;;;-4.87;71.66
68807;BME280;55800;54.272;18.558;2022-12-18T01:58:13;102464.03;;;-4.93;72.32
68807;BME280;55800;54.272;18.558;2022-12-18T02:00:44;102470.28;;;-4.89;72.03
68807;BME280;55800;54.272;18.558;2022-12-18T02:03:13;102474.16;;;-4.99;72.84
68807;BME280;55800;54.272;18.558;2022-12-18T02:05:47;102480.19;;;-5.00;73.07
68807;BME280;55800;54.272;18.558;2022-12-18T02:08:22;102478.22;;;-5.04;72.83
68807;BME280;55800;54.272;18.558;2022-12-18T02:11:01;102483.69;;;-4.99;72.32
68807;BME280;55800;54.272;18.558;2022-12-18T02:13:40;102485.88;;;-5.07;72.72
68807;BME280;55800;54.272;18.558;2022-12-18T02:16:20;102490.47;;;-5.03;72.86
68807;BME280;55800;54.272;18.558;2022-12-18T02:19:03;102491.44;;;-5.01;72.81
68807;BME280;55800;54.272;18.558;2022-12-18T02:21:57;102490.59;;;-5.00;72.68
68807;BME280;55800;54.272;18.558;2022-12-18T02:24:37;102493.38;;;-4.97;72.96
68807;BME280;55800;54.272;18.558;2022-12-18T02:27:12;102488.16;;;-4.97;73.13
68807;BME280;55800;54.272;18.558;2022-12-18T02:29:46;102493.69;;;-4.91;73.12
68807;BME280;55800;54.272;18.558;2022-12-18T02:32:26;102496.34;;;-4.89;73.23
68807;BME280;55800;54.272;18.558;2022-12-18T02:34:57;102500.59;;;-4.91;73.21
68807;BME280;55800;54.272;18.558;2022-12-18T02:37:30;102498.97;;;-4.89;73.21
68807;BME280;55800;54.272;18.558;2022-12-18T02:40:04;102504.25;;;-4.88;73.13
68807;BME280;55800;54.272;18.558;2022-12-18T02:42:38;102505.38;;;-4.83;73.49
68807;BME280;55800;54.272;18.558;2022-12-18T02:45:09;102503.09;;;-4.77;73.38
68807;BME280;55800;54.272;18.558;2022-12-18T02:47:42;102503.25;;;-4.73;73.34
68807;BME280;55800;54.272;18.558;2022-12-18T02:50:19;102503.38;;;-4.70;73.13
68807;BME280;55800;54.272;18.558;2022-12-18T02:53:02;102505.69;;;-4.77;72.98
68807;BME280;55800;54.272;18.558;2022-12-18T02:55:49;102503.09;;;-4.77;73.29
68807;BME280;55800;54.272;18.558;2022-12-18T02:58:29;102509.44;;;-4.71;73.22
68807;BME280;55800;54.272;18.558;2022-12-18T03:01:11;102519.88;;;-4.71;72.99
68807;BME280;55800;54.272;18.558;2022-12-18T03:03:47;102522.63;;;-4.68;73.18
68807;BME280;55800;54.272;18.558;2022-12-18T03:06:23;102518.38;;;-4.66;73.28
68807;BME280;55800;54.272;18.558;2022-12-18T03:08:58;102525.38;;;-4.65;72.53
68807;BME280;55800;54.272;18.558;2022-12-18T03:11:31;102521.81;;;-4.67;73.27
68807;BME280;55800;54.272;18.558;2022-12-18T03:14:22;102516.09;;;-4.60;73.16
68807;BME280;55800;54.272;18.558;2022-12-18T03:16:54;102514.22;;;-4.63;73.34
68807;BME280;55800;54.272;18.558;2022-12-18T03:19:29;102521.31;;;-4.60;72.98
68807;BME280;55800;54.272;18.558;2022-12-18T03:22:03;102524.03;;;-4.57;72.91
68807;BME280;55800;54.272;18.558;2022-12-18T03:24:45;102532.84;;;-4.55;73.05
68807;BME280;55800;54.272;18.558;2022-12-18T03:27:17;102523.06;;;-4.59;73.01
68807;BME280;55800;54.272;18.558;2022-12-18T03:29:58;102526.28;;;-4.47;72.83
68807;BME280;55800;54.272;18.558;2022-12-18T03:33:53;102536.09;;;-4.43;72.82
68807;BME280;55800;54.272;18.558;2022-12-18T03:36:29;102538.69;;;-4.43;72.33
68807;BME280;55800;54.272;18.558;2022-12-18T03:38:59;102542.16;;;-4.43;72.81
68807;BME280;55800;54.272;18.558;2022-12-18T03:41:32;102545.97;;;-4.36;73.20
68807;BME280;55800;54.272;18.558;2022-12-18T03:44:29;102555.00;;;-4.30;73.68
68807;BME280;55800;54.272;18.558;2022-12-18T03:47:06;102551.66;;;-4.27;74.38
68807;BME280;55800;54.272;18.558;2022-12-18T03:49:40;102550.97;;;-4.23;74.70
68807;BME280;55800;54.272;18.558;2022-12-18T03:52:20;102556.72;;;-4.13;74.40
68807;BME280;55800;54.272;18.558;2022-12-18T03:54:55;102555.97;;;-4.10;74.48
68807;BME280;55800;54.272;18.558;2022-12-18T03:57:29;102566.78;;;-4.03;74.05
68807;BME280;55800;54.272;18.558;2022-12-18T04:00:03;102560.06;;;-3.98;74.08
68807;BME280;55800;54.272;18.558;2022-12-18T04:02:44;102563.66;;;-3.96;74.01
68807;BME280;55800;54.272;18.558;2022-12-18T04:05:25;102564.66;;;-3.92;74.32
68807;BME280;55800;54.272;18.558;2022-12-18T04:07:56;102569.16;;;-3.89;74.01
68807;BME280;55800;54.272;18.558;2022-12-18T04:10:27;102574.53;;;-3.86;74.53
68807;BME280;55800;54.272;18.558;2022-12-18T04:12:58;102579.88;;;-3.83;74.27
68807;BME280;55800;54.272;18.558;2022-12-18T04:15:28;102571.38;;;-3.79;74.22
68807;BME280;55800;54.272;18.558;2022-12-18T04:18:00;102576.81;;;-3.75;74.55
68807;BME280;55800;54.272;18.558;2022-12-18T04:20:36;102579.44;;;-3.75;73.97
68807;BME280;55800;54.272;18.558;2022-12-18T04:23:06;102571.88;;;-3.69;74.09
68807;BME280;55800;54.272;18.558;2022-12-18T04:25:36;102572.03;;;-3.66;73.73
68807;BME280;55800;54.272;18.558;2022-12-18T04:28:10;102576.44;;;-3.65;74.03
68807;BME280;55800;54.272;18.558;2022-12-18T04:30:40;102580.16;;;-3.60;73.79
68807;BME280;55800;54.272;18.558;2022-12-18T04:33:13;102581.13;;;-3.58;73.55
68807;BME280;55800;54.272;18.558;2022-12-18T04:35:42;102584.56;;;-3.59;73.56
68807;BME280;55800;54.272;18.558;2022-12-18T04:38:13;102590.66;;;-3.58;73.06
68807;BME280;55800;54.272;18.558;2022-12-18T04:40:43;102590.75;;;-3.57;73.06
68807;BME280;55800;54.272;18.558;2022-12-18T04:43:21;102586.56;;;-3.53;73.16
68807;BME280;55800;54.272;18.558;2022-12-18T04:45:50;102597.91;;;-3.53;72.66
68807;BME280;55800;54.272;18.558;2022-12-18T04:48:21;102589.91;;;-3.56;73.12
68807;BME280;55800;54.272;18.558;2022-12-18T04:50:51;102597.84;;;-3.54;72.72
68807;BME280;55800;54.272;18.558;2022-12-18T04:53:20;102596.78;;;-3.58;72.68
68807;BME280;55800;54.272;18.558;2022-12-18T04:55:49;102594.94;;;-3.60;72.77
68807;BME280;55800;54.272;18.558;2022-12-18T04:58:19;102598.38;;;-3.61;72.73
68807;BME280;55800;54.272;18.558;2022-12-18T05:00:48;102596.66;;;-3.61;72.63
68807;BME280;55800;54.272;18.558;2022-12-18T05:03:19;102606.28;;;-3.60;72.42
68807;BME280;55800;54.272;18.558;2022-12-18T05:05:50;102608.78;;;-3.63;72.35
68807;BME280;55800;54.272;18.558;2022-12-18T05:08:20;102602.59;;;-3.65;72.49
68807;BME280;55800;54.272;18.558;2022-12-18T05:10:49;102605.03;;;-3.68;72.56
68807;BME280;55800;54.272;18.558;2022-12-18T05:13:19;102618.09;;;-3.68;72.83
68807;BME280;55800;54.272;18.558;2022-12-18T05:15:52;102621.34;;;-3.73;73.11
68807;BME280;55800;54.272;18.558;2022-12-18T05:18:23;102627.38;;;-3.74;72.72
68807;BME280;55800;54.272;18.558;2022-12-18T05:20:53;102622.38;;;-3.70;72.97
68807;BME280;55800;54.272;18.558;2022-12-18T05:23:24;102623.06;;;-3.74;72.75
68807;BME280;55800;54.272;18.558;2022-12-18T05:25:55;102628.97;;;-3.78;72.88
68807;BME280;55800;54.272;18.558;2022-12-18T05:28:26;102634.88;;;-3.82;73.39
68807;BME280;55800;54.272;18.558;2022-12-18T05:30:57;102634.88;;;-3.82;73.04
68807;BME280;55800;54.272;18.558;2022-12-18T05:33:30;102638.44;;;-3.80;73.34
68807;BME280;55800;54.272;18.558;2022-12-18T05:36:05;102642.91;;;-3.77;72.77
68807;BME280;55800;54.272;18.558;2022-12-18T05:38:37;102640.22;;;-3.79;73.12
68807;BME280;55800;54.272;18.558;2022-12-18T05:41:07;102653.28;;;-3.79;72.97
68807;BME280;55800;54.272;18.558;2022-12-18T05:43:37;102645.50;;;-3.77;72.92
68807;BME280;55800;54.272;18.558;2022-12-18T05:46:10;102652.19;;;-3.84;73.15
68807;BME280;55800;54.272;18.558;2022-12-18T05:48:42;102661.81;;;-3.83;72.66
68807;BME280;55800;54.272;18.558;2022-12-18T05:51:12;102660.09;;;-3.82;72.95
68807;BME280;55800;54.272;18.558;2022-12-18T05:53:43;102662.63;;;-3.84;73.09
68807;BME280;55800;54.272;18.558;2022-12-18T05:56:13;102664.34;;;-3.84;72.82
68807;BME280;55800;54.272;18.558;2022-12-18T05:58:43;102670.16;;;-3.90;73.10
68807;BME280;55800;54.272;18.558;2022-12-18T06:01:14;102664.28;;;-3.86;73.27
68807;BME280;55800;54.272;18.558;2022-12-18T06:03:45;102665.25;;;-3.84;72.85
68807;BME280;55800;54.272;18.558;2022-12-18T06:06:16;102681.56;;;-3.88;73.00
68807;BME280;55800;54.272;18.558;2022-12-18T06:08:49;102673.97;;;-3.83;72.97
68807;BME280;55800;54.272;18.558;2022-12-18T06:11:21;102672.13;;;-3.86;72.98
68807;BME280;55800;54.272;18.558;2022-12-18T06:13:51;102678.09;;;-3.88;73.14
68807;BME280;55800;54.272;18.558;2022-12-18T06:16:25;102684.13;;;-3.89;73.30
68807;BME280;55800;54.272;18.558;2022-12-18T06:18:58;102678.91;;;-3.89;73.33
68807;BME280;55800;54.272;18.558;2022-12-18T06:21:29;102699.88;;;-3.88;73.41
68807;BME280;55800;54.272;18.558;2022-12-18T06:24:00;102690.41;;;-3.86;73.43
68807;BME280;55800;54.272;18.558;2022-12-18T06:26:29;102694.81;;;-3.85;72.90
68807;BME280;55800;54.272;18.558;2022-12-18T06:28:58;102692.19;;;-3.85;73.11
68807;BME280;55800;54.272;18.558;2022-12-18T06:31:27;102692.78;;;-3.90;73.52
68807;BME280;55800;54.272;18.558;2022-12-18T06:33:59;102694.88;;;-3.83;73.38
68807;BME280;55800;54.272;18.558;2022-12-18T06:36:29;102700.94;;;-3.84;73.33
68807;BME280;55800;54.272;18.558;2022-12-18T06:38:58;102705.09;;;-3.88;73.70
68807;BME280;55800;54.272;18.558;2022-12-18T06:41:27;102713.16;;;-3.83;73.41
68807;BME280;55800;54.272;18.558;2022-12-18T06:43:58;102720.13;;;-3.84;73.45
68807;BME280;55800;54.272;18.558;2022-12-18T06:46:27;102728.47;;;-3.91;73.62
68807;BME280;55800;54.272;18.558;2022-12-18T06:48:58;102731.31;;;-3.86;73.54
68807;BME280;55800;54.272;18.558;2022-12-18T06:51:27;102726.84;;;-3.89;73.65
68807;BME280;55800;54.272;18.558;2022-12-18T06:53:57;102728.84;;;-3.83;73.47
68807;BME280;55800;54.272;18.558;2022-12-18T06:56:26;102738.31;;;-3.85;73.65
68807;BME280;55800;54.272;18.558;2022-12-18T06:58:56;102734.31;;;-3.79;73.52
68807;BME280;55800;54.272;18.558;2022-12-18T07:01:25;102745.94;;;-3.72;73.25
68807;BME280;55800;54.272;18.558;2022-12-18T07:03:56;102740.59;;;-3.75;73.38
68807;BME280;55800;54.272;18.558;2022-12-18T07:06:27;102745.81;;;-3.75;73.36
68807;BME280;55800;54.272;18.558;2022-12-18T07:08:56;102758.97;;;-3.74;72.99
68807;BME280;55800;54.272;18.558;2022-12-18T07:11:25;102751.13;;;-3.74;73.43
68807;BME280;55800;54.272;18.558;2022-12-18T07:13:55;102760.72;;;-3.73;73.52
68807;BME280;55800;54.272;18.558;2022-12-18T07:16:25;102773.13;;;-3.69;73.42
68807;BME280;55800;54.272;18.558;2022-12-18T07:18:56;102773.00;;;-3.72;73.24
68807;BME280;55800;54.272;18.558;2022-12-18T07:21:27;102771.19;;;-3.73;73.22
68807;BME280;55800;54.272;18.558;2022-12-18T07:23:57;102773.56;;;-3.77;73.07
68807;BME280;55800;54.272;18.558;2022-12-18T07:26:26;102776.41;;;-3.73;73.00
68807;BME280;55800;54.272;18.558;2022-12-18T07:28:57;102772.16;;;-3.71;72.80
68807;BME280;55800;54.272;18.558;2022-12-18T07:31:26;102775.75;;;-3.69;72.65
68807;BME280;55800;54.272;18.558;2022-12-18T07:33:56;102774.16;;;-3.83;73.00
68807;BME280;55800;54.272;18.558;2022-12-18T07:36:27;102778.06;;;-3.75;72.72
68807;BME280;55800;54.272;18.558;2022-12-18T07:38:57;102779.69;;;-3.77;72.87
68807;BME280;55800;54.272;18.558;2022-12-18T07:41:26;102785.09;;;-3.74;72.78
68807;BME280;55800;54.272;18.558;2022-12-18T07:43:56;102777.25;;;-3.74;72.83
68807;BME280;55800;54.272;18.558;2022-12-18T07:46:25;102792.09;;;-3.73;72.96
68807;BME280;55800;54.272;18.558;2022-12-18T07:48:56;102798.91;;;-3.76;73.02
68807;BME280;55800;54.272;18.558;2022-12-18T07:51:25;102795.53;;;-3.74;73.09
68807;BME280;55800;54.272;18.558;2022-12-18T07:53:57;102802.47;;;-3.74;72.82
68807;BME280;55800;54.272;18.558;2022-12-18T07:56:27;102804.06;;;-3.78;73.05
68807;BME280;55800;54.272;18.558;2022-12-18T07:58:58;102793.75;;;-3.75;72.74
68807;BME280;55800;54.272;18.558;2022-12-18T08:01:30;102788.50;;;-3.75;72.86
68807;BME280;55800;54.272;18.558;2022-12-18T08:04:00;102794.72;;;-3.73;72.93
68807;BME280;55800;54.272;18.558;2022-12-18T08:06:30;102799.28;;;-3.69;72.98
68807;BME280;55800;54.272;18.558;2022-12-18T08:09:01;102802.72;;;-3.70;73.26
68807;BME280;55800;54.272;18.558;2022-12-18T08:11:30;102804.66;;;-3.66;73.05
68807;BME280;55800;54.272;18.558;2022-12-18T08:14:00;102801.06;;;-3.68;73.34
68807;BME280;55800;54.272;18.558;2022-12-18T08:16:29;102807.94;;;-3.70;73.70
68807;BME280;55800;54.272;18.558;2022-12-18T08:18:59;102812.81;;;-3.60;73.34
68807;BME280;55800;54.272;18.558;2022-12-18T08:21:29;102817.81;;;-3.64;73.39
68807;BME280;55800;54.272;18.558;2022-12-18T08:24:02;102813.66;;;-3.61;73.79
68807;BME280;55800;54.272;18.558;2022-12-18T08:26:31;102822.59;;;-3.56;73.54
68807;BME280;55800;54.272;18.558;2022-12-18T08:29:01;102820.28;;;-3.50;73.25
68807;BME280;55800;54.272;18.558;2022-12-18T08:31:31;102825.75;;;-3.45;73.45
68807;BME280;55800;54.272;18.558;2022-12-18T08:34:01;102824.34;;;-3.39;73.34
68807;BME280;55800;54.272;18.558;2022-12-18T08:36:30;102823.66;;;-3.35;72.96
68807;BME280;55800;54.272;18.558;2022-12-18T08:39:01;102827.34;;;-3.31;73.11
68807;BME280;55800;54.272;18.558;2022-12-18T08:41:30;102830.09;;;-3.28;73.03
68807;BME280;55800;54.272;18.558;2022-12-18T08:44:01;102819.78;;;-3.25;73.16
68807;BME280;55800;54.272;18.558;2022-12-18T08:46:47;102814.69;;;-3.22;73.30
68807;BME280;55800;54.272;18.558;2022-12-18T08:49:16;102817.41;;;-3.21;73.34
68807;BME280;55800;54.272;18.558;2022-12-18T08:51:46;102815.75;;;-3.19;73.47
68807;BME280;55800;54.272;18.558;2022-12-18T08:54:17;102823.00;;;-3.13;73.35
68807;BME280;55800;54.272;18.558;2022-12-18T08:56:46;102818.00;;;-3.08;73.12
68807;BME280;55800;54.272;18.558;2022-12-18T08:59:16;102821.63;;;-3.05;73.10
68807;BME280;55800;54.272;18.558;2022-12-18T09:01:47;102823.50;;;-3.02;72.92
68807;BME280;55800;54.272;18.558;2022-12-18T09:04:18;102821.78;;;-3.02;73.08
68807;BME280;55800;54.272;18.558;2022-12-18T09:06:47;102824.34;;;-3.03;73.03
68807;BME280;55800;54.272;18.558;2022-12-18T09:09:18;102821.13;;;-2.98;73.00
68807;BME280;55800;54.272;18.558;2022-12-18T09:11:47;102836.97;;;-2.95;72.88
68807;BME280;55800;54.272;18.558;2022-12-18T09:14:17;102843.69;;;-2.82;72.73
68807;BME280;55800;54.272;18.558;2022-12-18T09:16:46;102831.63;;;-2.79;72.91
68807;BME280;55800;54.272;18.558;2022-12-18T09:19:16;102834.41;;;-2.76;72.78
68807;BME280;55800;54.272;18.558;2022-12-18T09:21:45;102825.78;;;-2.73;73.02
68807;BME280;55800;54.272;18.558;2022-12-18T09:24:17;102822.78;;;-2.63;72.57
68807;BME280;55800;54.272;18.558;2022-12-18T09:26:47;102826.38;;;-2.61;72.27
68807;BME280;55800;54.272;18.558;2022-12-18T09:29:22;102838.03;;;-2.55;72.08
68807;BME280;55800;54.272;18.558;2022-12-18T09:31:52;102834.09;;;-2.45;72.09
68807;BME280;55800;54.272;18.558;2022-12-18T09:34:21;102850.03;;;-2.41;71.94
68807;BME280;55800;54.272;18.558;2022-12-18T09:36:51;102849.13;;;-2.41;71.88
68807;BME280;55800;54.272;18.558;2022-12-18T09:39:22;102836.19;;;-2.38;72.20
68807;BME280;55800;54.272;18.558;2022-12-18T09:41:53;102840.03;;;-2.30;71.88
68807;BME280;55800;54.272;18.558;2022-12-18T09:44:26;102833.84;;;-2.32;71.35
68807;BME280;55800;54.272;18.558;2022-12-18T09:47:09;102841.16;;;-2.25;71.73
68807;BME280;55800;54.272;18.558;2022-12-18T09:49:44;102842.94;;;-2.24;71.57
68807;BME280;55800;54.272;18.558;2022-12-18T09:52:17;102842.44;;;-2.15;70.93
68807;BME280;55800;54.272;18.558;2022-12-18T09:54:53;102848.84;;;-2.09;71.08
68807;BME280;55800;54.272;18.558;2022-12-18T09:57:25;102850.25;;;-1.98;70.71
68807;BME280;55800;54.272;18.558;2022-12-18T09:59:58;102854.63;;;-1.97;70.58
68807;BME280;55800;54.272;18.558;2022-12-18T10:02:38;102855.59;;;-1.95;70.60
68807;BME280;55800;54.272;18.558;2022-12-18T10:05:10;102845.31;;;-1.90;70.84
68807;BME280;55800;54.272;18.558;2022-12-18T10:07:50;102845.38;;;-1.89;70.46
68807;BME280;55800;54.272;18.558;2022-12-18T10:10:26;102842.63;;;-1.92;70.34
68807;BME280;55800;54.272;18.558;2022-12-18T10:13:05;102838.31;;;-1.91;70.71
68807;BME280;55800;54.272;18.558;2022-12-18T10:15:43;102836.69;;;-1.88;70.28
68807;BME280;55800;54.272;18.558;2022-12-18T10:18:26;102843.88;;;-1.84;70.17
68807;BME280;55800;54.272;18.558;2022-12-18T10:21:06;102853.25;;;-1.89;70.23
68807;BME280;55800;54.272;18.558;2022-12-18T10:23:43;102850.81;;;-1.84;69.56
68807;BME280;55800;54.272;18.558;2022-12-18T10:26:19;102863.25;;;-1.80;69.70
68807;BME280;55800;54.272;18.558;2022-12-18T10:28:49;102866.22;;;-1.73;69.05
68807;BME280;55800;54.272;18.558;2022-12-18T10:31:22;102862.13;;;-1.66;69.14
68807;BME280;55800;54.272;18.558;2022-12-18T10:33:54;102852.25;;;-1.72;69.27
68807;BME280;55800;54.272;18.558;2022-12-18T10:36:24;102856.19;;;-1.62;69.26
68807;BME280;55800;54.272;18.558;2022-12-18T10:38:54;102864.75;;;-1.66;68.67
68807;BME280;55800;54.272;18.558;2022-12-18T10:41:38;102866.63;;;-1.64;68.63
68807;BME280;55800;54.272;18.558;2022-12-18T10:44:14;102863.28;;;-1.60;68.73
68807;BME280;55800;54.272;18.558;2022-12-18T10:46:46;102859.75;;;-1.60;68.56
68807;BME280;55800;54.272;18.558;2022-12-18T10:49:22;102868.81;;;-1.53;68.72
68807;BME280;55800;54.272;18.558;2022-12-18T10:52:03;102873.28;;;-1.51;68.69
68807;BME280;55800;54.272;18.558;2022-12-18T10:54:34;102861.25;;;-1.46;68.97
68807;BME280;55800;54.272;18.558;2022-12-18T10:57:33;102845.00;;;-1.37;68.44
68807;BME280;55800;54.272;18.558;2022-12-18T11:00:25;102847.69;;;-1.36;68.40
68807;BME280;55800;54.272;18.558;2022-12-18T11:02:57;102848.00;;;-1.28;68.03
68807;BME280;55800;54.272;18.558;2022-12-18T11:05:29;102859.50;;;-1.25;68.59
68807;BME280;55800;54.272;18.558;2022-12-18T11:08:00;102861.56;;;-1.18;67.92
68807;BME280;55800;54.272;18.558;2022-12-18T11:10:32;102863.03;;;-1.24;68.03
68807;BME280;55800;54.272;18.558;2022-12-18T11:13:18;102870.22;;;-1.20;67.88
68807;BME280;55800;54.272;18.558;2022-12-18T11:15:50;102864.91;;;-1.22;67.74
68807;BME280;55800;54.272;18.558;2022-12-18T11:18:25;102859.00;;;-1.16;67.98
68807;BME280;55800;54.272;18.558;2022-12-18T11:20:56;102863.53;;;-1.12;68.03
68807;BME280;55800;54.272;18.558;2022-12-18T11:23:28;102868.88;;;-1.11;68.16
68807;BME280;55800;54.272;18.558;2022-12-18T11:25:59;102873.72;;;-0.99;67.97
68807;BME280;55800;54.272;18.558;2022-12-18T11:28:37;102881.72;;;-0.96;67.88
68807;BME280;55800;54.272;18.558;2022-12-18T11:31:22;102873.19;;;-0.91;68.07
68807;BME280;55800;54.272;18.558;2022-12-18T11:34:00;102870.66;;;-0.89;68.10
68807;BME280;55800;54.272;18.558;2022-12-18T11:36:50;102859.06;;;-0.94;67.03
68807;BME280;55800;54.272;18.558;2022-12-18T11:39:21;102852.00;;;-0.95;66.74
68807;BME280;55800;54.272;18.558;2022-12-18T11:41:56;102865.97;;;-0.96;67.53
68807;BME280;55800;54.272;18.558;2022-12-18T11:44:46;102872.19;;;-0.94;67.21
68807;BME280;55800;54.272;18.558;2022-12-18T11:47:22;102878.25;;;-0.95;67.07
68807;BME280;55800;54.272;18.558;2022-12-18T11:49:56;102890.66;;;-0.91;67.18
68807;BME280;55800;54.272;18.558;2022-12-18T11:52:36;102896.00;;;-0.90;66.85
68807;BME280;55800;54.272;18.558;2022-12-18T11:55:11;102905.03;;;-0.83;67.07
68807;BME280;55800;54.272;18.558;2022-12-18T11:57:51;102917.31;;;-0.82;67.04
68807;BME280;55800;54.272;18.558;2022-12-18T12:00:26;102921.84;;;-0.78;67.85
68807;BME280;55800;54.272;18.558;2022-12-18T12:06:03;102925.69;;;-0.70;66.75
68807;BME280;55800;54.272;18.558;2022-12-18T12:08:45;102918.59;;;-0.72;67.22
68807;BME280;55800;54.272;18.558;2022-12-18T12:11:28;102916.59;;;-0.78;66.85
68807;BME280;55800;54.272;18.558;2022-12-18T12:14:24;102915.06;;;-0.73;67.14
68807;BME280;55800;54.272;18.558;2022-12-18T12:17:06;102911.88;;;-0.66;67.19
68807;BME280;55800;54.272;18.558;2022-12-18T12:19:45;102912.03;;;-0.61;67.68
68807;BME280;55800;54.272;18.558;2022-12-18T12:22:24;102914.59;;;-0.63;67.75
68807;BME280;55800;54.272;18.558;2022-12-18T12:25:15;102907.66;;;-0.61;67.90
68807;BME280;55800;54.272;18.558;2022-12-18T12:27:56;102904.13;;;-0.61;67.77
68807;BME280;55800;54.272;18.558;2022-12-18T12:30:34;102903.25;;;-0.62;66.77
68807;BME280;55800;54.272;18.558;2022-12-18T12:33:18;102901.41;;;-0.64;66.91
68807;BME280;55800;54.272;18.558;2022-12-18T12:35:56;102896.88;;;-0.68;66.72
68807;BME280;55800;54.272;18.558;2022-12-18T12:38:33;102890.66;;;-0.70;66.54
68807;BME280;55800;54.272;18.558;2022-12-18T12:41:06;102893.34;;;-0.69;66.77
68807;BME280;55800;54.272;18.558;2022-12-18T12:44:00;102890.91;;;-0.64;66.75
68807;BME280;55800;54.272;18.558;2022-12-18T12:46:32;102900.25;;;-0.71;67.02
68807;BME280;55800;54.272;18.558;2022-12-18T12:49:11;102904.56;;;-0.73;67.36
68807;BME280;55800;54.272;18.558;2022-12-18T12:51:45;102902.16;;;-0.67;67.12
68807;BME280;55800;54.272;18.558;2022-12-18T12:54:21;102907.28;;;-0.70;66.94
68807;BME280;55800;54.272;18.558;2022-12-18T12:56:54;102908.16;;;-0.71;67.72
68807;BME280;55800;54.272;18.558;2022-12-18T12:59:34;102905.66;;;-0.68;67.48
68807;BME280;55800;54.272;18.558;2022-12-18T13:02:17;102902.03;;;-0.70;67.60
68807;BME280;55800;54.272;18.558;2022-12-18T13:04:58;102905.13;;;-0.80;67.73
68807;BME280;55800;54.272;18.558;2022-12-18T13:07:36;102896.53;;;-0.76;68.16
68807;BME280;55800;54.272;18.558;2022-12-18T13:10:24;102901.88;;;-0.74;67.52
68807;BME280;55800;54.272;18.558;2022-12-18T13:12:56;102915.84;;;-0.75;68.08
68807;BME280;55800;54.272;18.558;2022-12-18T13:15:30;102915.00;;;-0.74;68.33
68807;BME280;55800;54.272;18.558;2022-12-18T13:18:19;102912.19;;;-0.79;67.99